createdAt,value
2018-10-17T00:00:31.842Z,6.10
2018-10-17T00:02:59.929Z,6.63
2018-10-17T00:05:28.106Z,6.83
2018-10-17T00:07:56.237Z,6.50
2018-10-17T00:10:24.269Z,6.50
2018-10-17T00:12:52.406Z,6.87
2018-10-17T00:15:20.417Z,6.47
2018-10-17T00:17:48.533Z,6.73
2018-10-17T00:20:16.633Z,6.40
2018-10-17T00:22:44.681Z,6.50
2018-10-17T00:25:12.780Z,6.23
2018-10-17T00:27:40.833Z,6.90
2018-10-17T00:30:11.413Z,6.97
2018-10-17T00:32:39.733Z,6.67
2018-10-17T00:35:08.426Z,6.67
2018-10-17T00:37:36.428Z,7.03
2018-10-17T00:40:04.597Z,7.03
2018-10-17T00:42:32.689Z,7.10
2018-10-17T00:45:00.773Z,6.90
2018-10-17T00:47:28.821Z,6.97
2018-10-17T00:49:56.897Z,6.90
2018-10-17T00:52:25.025Z,6.73
2018-10-17T00:54:53.074Z,7.17
2018-10-17T00:57:21.362Z,7.17
2018-10-17T00:59:49.518Z,7.27
2018-10-17T01:02:17.573Z,7.07
2018-10-17T01:04:45.615Z,8.07
2018-10-17T01:07:13.773Z,6.83
2018-10-17T01:09:41.826Z,7.37
2018-10-17T01:12:09.950Z,7.47
2018-10-17T01:14:38.041Z,7.10
2018-10-17T01:17:06.160Z,7.53
2018-10-17T01:19:34.133Z,7.13
2018-10-17T01:22:02.177Z,7.27
2018-10-17T01:24:30.230Z,7.70
2018-10-17T01:26:58.310Z,7.03
2018-10-17T01:29:26.365Z,7.87
2018-10-17T01:31:54.409Z,7.73
2018-10-17T01:34:22.523Z,7.67
2018-10-17T01:36:50.726Z,7.73
2018-10-17T01:39:18.761Z,7.17
2018-10-17T01:41:46.809Z,7.30
2018-10-17T01:44:14.931Z,7.80
2018-10-17T01:46:42.989Z,7.83
2018-10-17T01:49:11.049Z,7.83
2018-10-17T01:51:39.080Z,7.47
2018-10-17T01:54:07.148Z,8.23
2018-10-17T01:56:35.245Z,7.50
2018-10-17T01:59:03.300Z,7.37
2018-10-17T02:01:31.401Z,7.43
2018-10-17T02:03:59.526Z,8.53
2018-10-17T02:06:27.594Z,8.10
2018-10-17T02:08:55.896Z,7.63
2018-10-17T02:11:24.092Z,7.87
2018-10-17T02:13:52.138Z,7.17
2018-10-17T02:16:20.501Z,7.50
2018-10-17T02:18:48.585Z,7.53
2018-10-17T02:21:16.760Z,7.63
2018-10-17T02:23:44.783Z,7.30
2018-10-17T02:26:12.842Z,6.93
2018-10-17T02:28:40.893Z,7.30
2018-10-17T02:31:08.998Z,6.97
2018-10-17T02:33:37.001Z,8.10
2018-10-17T02:36:05.085Z,7.33
2018-10-17T02:38:33.157Z,7.57
2018-10-17T02:41:01.332Z,8.37
2018-10-17T02:43:29.381Z,7.30
2018-10-17T02:45:57.465Z,8.10
2018-10-17T02:48:25.505Z,8.23
2018-10-17T02:50:53.548Z,7.93
2018-10-17T02:53:21.702Z,7.53
2018-10-17T02:55:49.838Z,7.80
2018-10-17T02:58:17.939Z,8.30
2018-10-17T03:00:46.009Z,7.47
2018-10-17T03:03:14.062Z,7.50
2018-10-17T03:05:42.150Z,7.43
2018-10-17T03:08:10.311Z,7.27
2018-10-17T03:10:38.405Z,7.50
2018-10-17T03:13:06.558Z,8.17
2018-10-17T03:15:34.561Z,7.23
2018-10-17T03:18:02.650Z,7.37
2018-10-17T03:20:30.722Z,6.90
2018-10-17T03:22:58.974Z,6.67
2018-10-17T03:25:26.947Z,7.47
2018-10-17T03:27:55.132Z,8.10
2018-10-17T03:30:23.193Z,7.40
2018-10-17T03:32:51.360Z,7.83
2018-10-17T03:35:19.577Z,7.60
2018-10-17T03:37:47.742Z,7.30
2018-10-17T03:40:15.858Z,6.67
2018-10-17T03:42:43.974Z,7.37
2018-10-17T03:45:12.051Z,7.40
2018-10-17T03:47:40.166Z,6.97
2018-10-17T03:50:08.305Z,7.93
2018-10-17T03:52:36.382Z,7.07
2018-10-17T03:55:04.738Z,7.27
2018-10-17T03:57:32.834Z,7.77
2018-10-17T04:00:01.074Z,6.83
2018-10-17T04:02:29.193Z,7.90
2018-10-17T04:04:57.305Z,7.07
2018-10-17T04:07:25.354Z,7.00
2018-10-17T04:09:53.406Z,7.17
2018-10-17T04:12:21.574Z,7.23
2018-10-17T04:14:49.666Z,7.63
2018-10-17T04:17:17.795Z,7.10
2018-10-17T04:19:45.820Z,6.83
2018-10-17T04:22:13.886Z,7.47
2018-10-17T04:24:41.962Z,7.03
2018-10-17T04:27:09.997Z,7.53
2018-10-17T04:29:38.094Z,7.20
2018-10-17T04:32:06.158Z,6.83
2018-10-17T04:34:34.274Z,7.40
2018-10-17T04:37:02.417Z,7.37
2018-10-17T04:39:30.510Z,7.80
2018-10-17T04:41:58.562Z,7.50
2018-10-17T04:44:26.660Z,7.83
2018-10-17T04:46:54.769Z,7.37
2018-10-17T04:49:22.906Z,7.13
2018-10-17T04:51:51.082Z,7.37
2018-10-17T04:54:19.134Z,6.47
2018-10-17T04:56:47.198Z,7.27
2018-10-17T04:59:15.330Z,7.77
2018-10-17T05:01:43.322Z,7.10
2018-10-17T05:04:11.363Z,7.07
2018-10-17T05:06:39.515Z,7.10
2018-10-17T05:09:09.094Z,7.60
2018-10-17T05:11:37.162Z,7.37
2018-10-17T05:14:05.791Z,7.60
2018-10-17T05:16:33.854Z,7.60
2018-10-17T05:19:01.932Z,7.50
2018-10-17T05:21:30.000Z,6.93
2018-10-17T05:23:58.090Z,7.07
2018-10-17T05:26:26.237Z,6.67
2018-10-17T05:28:54.502Z,7.23
2018-10-17T05:31:22.577Z,7.07
2018-10-17T05:33:50.647Z,6.37
2018-10-17T05:36:18.698Z,7.43
2018-10-17T05:38:46.758Z,7.23
2018-10-17T05:41:14.899Z,6.70
2018-10-17T05:43:42.874Z,7.67
2018-10-17T05:46:10.926Z,7.53
2018-10-17T05:48:38.978Z,6.93
2018-10-17T05:51:07.034Z,7.10
2018-10-17T05:53:35.153Z,6.77
2018-10-17T05:56:03.278Z,7.20
2018-10-17T05:58:31.374Z,7.00
2018-10-17T06:00:59.505Z,6.93
2018-10-17T06:03:27.610Z,7.13
2018-10-17T06:05:55.657Z,6.53
2018-10-17T06:08:23.711Z,7.20
2018-10-17T06:10:51.787Z,7.17
2018-10-17T06:13:19.962Z,6.73
2018-10-17T06:15:48.018Z,6.67
2018-10-17T06:18:16.134Z,6.97
2018-10-17T06:20:44.194Z,7.00
2018-10-17T06:23:12.345Z,7.33
2018-10-17T06:25:40.402Z,7.20
2018-10-17T06:28:08.503Z,7.20
2018-10-17T06:30:36.600Z,7.60
2018-10-17T06:33:04.642Z,6.90
2018-10-17T06:35:32.738Z,7.43
2018-10-17T06:38:00.827Z,6.97
2018-10-17T06:40:28.897Z,7.27
2018-10-17T06:42:57.053Z,7.40
2018-10-17T06:45:25.023Z,7.23
2018-10-17T06:47:53.734Z,6.70
2018-10-17T06:50:21.874Z,7.13
2018-10-17T06:52:49.951Z,6.60
2018-10-17T06:55:18.161Z,8.00
2018-10-17T06:57:46.138Z,7.47
2018-10-17T07:00:14.202Z,6.87
2018-10-17T07:02:42.249Z,7.97
2018-10-17T07:05:11.017Z,8.20
2018-10-17T07:07:43.496Z,7.83
2018-10-17T07:10:11.578Z,7.23
2018-10-17T07:12:39.754Z,7.13
2018-10-17T07:15:07.894Z,7.23
2018-10-17T07:17:36.235Z,8.47
2018-10-17T07:20:04.754Z,8.03
2018-10-17T07:22:32.880Z,7.60
2018-10-17T07:25:01.006Z,7.63
2018-10-17T07:27:29.025Z,7.53
2018-10-17T07:29:57.219Z,8.20
2018-10-17T07:32:25.330Z,7.67
2018-10-17T07:34:53.460Z,8.17
2018-10-17T07:37:23.877Z,8.40
2018-10-17T07:39:52.076Z,7.63
2018-10-17T07:42:20.249Z,7.80
2018-10-17T07:44:48.362Z,7.23
2018-10-17T07:47:16.506Z,7.47
2018-10-17T07:49:44.605Z,7.40
2018-10-17T07:52:12.717Z,6.80
2018-10-17T07:54:40.846Z,7.47
2018-10-17T07:57:08.934Z,8.17
2018-10-17T07:59:37.042Z,7.87
2018-10-17T08:02:05.271Z,7.00
2018-10-17T08:04:33.354Z,6.70
2018-10-17T08:07:01.432Z,6.80
2018-10-17T08:09:29.566Z,7.47
2018-10-17T08:11:57.683Z,7.47
2018-10-17T08:14:26.068Z,7.67
2018-10-17T08:16:54.133Z,7.07
2018-10-17T08:19:22.204Z,8.07
2018-10-17T08:21:50.250Z,7.93
2018-10-17T08:24:18.410Z,7.70
2018-10-17T08:26:46.413Z,8.17
2018-10-17T08:29:15.001Z,7.13
2018-10-17T08:31:43.066Z,7.30
2018-10-17T08:34:11.153Z,7.33
2018-10-17T08:36:39.429Z,7.20
2018-10-17T08:39:08.187Z,7.63
2018-10-17T08:41:36.322Z,6.70
2018-10-17T08:44:04.516Z,6.37
2018-10-17T08:46:32.532Z,7.20
2018-10-17T08:49:00.622Z,7.47
2018-10-17T08:51:28.722Z,6.97
2018-10-17T08:53:56.827Z,6.30
2018-10-17T08:56:25.118Z,6.33
2018-10-17T08:58:53.492Z,6.10
2018-10-17T09:01:21.551Z,6.17
2018-10-17T09:03:49.643Z,6.07
2018-10-17T09:06:17.912Z,6.20
2018-10-17T09:08:45.882Z,6.70
2018-10-17T09:11:13.974Z,6.27
2018-10-17T09:13:42.066Z,5.73
2018-10-17T09:16:10.216Z,5.50
2018-10-17T09:18:38.182Z,6.03
2018-10-17T09:21:06.734Z,6.23
2018-10-17T09:23:34.375Z,5.10
2018-10-17T09:26:02.469Z,5.43
2018-10-17T09:28:30.583Z,5.03
2018-10-17T09:30:58.682Z,5.43
2018-10-17T09:33:26.754Z,5.33
2018-10-17T09:35:55.037Z,4.53
2018-10-17T09:38:23.050Z,4.37
2018-10-17T09:40:51.114Z,4.63
2018-10-17T09:43:19.276Z,4.87
2018-10-17T09:45:47.230Z,5.10
2018-10-17T09:48:15.504Z,4.30
2018-10-17T09:50:43.432Z,4.40
2018-10-17T09:53:11.542Z,4.30
2018-10-17T09:55:39.591Z,4.50
2018-10-17T09:58:07.719Z,4.23
2018-10-17T10:00:41.097Z,4.07
2018-10-17T10:03:09.238Z,3.87
2018-10-17T10:05:37.369Z,4.10
2018-10-17T10:08:05.466Z,3.80
2018-10-17T10:10:33.561Z,3.47
2018-10-17T10:13:01.646Z,3.90
2018-10-17T10:15:29.758Z,3.70
2018-10-17T10:17:57.872Z,3.60
2018-10-17T10:20:25.949Z,4.03
2018-10-17T10:22:54.077Z,3.20
2018-10-17T10:25:22.196Z,3.03
2018-10-17T10:27:50.218Z,3.10
2018-10-17T10:30:18.329Z,3.43
2018-10-17T10:32:46.455Z,3.20
2018-10-17T10:35:14.530Z,2.87
2018-10-17T10:37:42.614Z,3.10
2018-10-17T10:40:10.716Z,3.17
2018-10-17T10:42:38.790Z,3.27
2018-10-17T10:45:06.956Z,2.80
2018-10-17T10:47:34.960Z,2.97
2018-10-17T10:50:03.070Z,2.83
2018-10-17T10:52:31.094Z,2.40
2018-10-17T10:54:59.150Z,2.47
2018-10-17T10:57:27.222Z,2.57
2018-10-17T10:59:55.346Z,2.40
2018-10-17T11:02:23.362Z,2.83
2018-10-17T11:04:51.596Z,2.30
2018-10-17T11:07:19.605Z,2.70
2018-10-17T11:09:47.678Z,3.17
2018-10-17T11:12:15.718Z,2.30
2018-10-17T11:14:43.956Z,2.70
2018-10-17T11:17:11.960Z,2.40
2018-10-17T11:19:39.979Z,2.20
2018-10-17T11:22:08.084Z,2.30
2018-10-17T11:24:36.184Z,2.20
2018-10-17T11:27:04.438Z,3.00
2018-10-17T11:29:32.477Z,2.50
2018-10-17T11:32:00.663Z,3.07
2018-10-17T11:34:28.670Z,2.73
2018-10-17T11:36:56.895Z,2.57
2018-10-17T11:39:24.990Z,2.47
2018-10-17T11:41:53.058Z,2.40
2018-10-17T11:44:21.309Z,2.40
2018-10-17T11:46:49.371Z,2.10
2018-10-17T11:49:17.422Z,2.10
2018-10-17T11:51:45.522Z,2.50
2018-10-17T11:54:13.615Z,2.03
2018-10-17T11:56:41.886Z,1.73
2018-10-17T11:59:09.999Z,2.30
2018-10-17T12:01:38.050Z,2.23
2018-10-17T12:04:06.675Z,2.40
2018-10-17T12:06:34.326Z,2.40
2018-10-17T12:09:02.419Z,2.50
2018-10-17T12:11:30.559Z,2.47
2018-10-17T12:13:58.570Z,2.37
2018-10-17T12:16:26.630Z,2.10
2018-10-17T12:18:54.763Z,2.37
2018-10-17T12:21:22.826Z,2.60
2018-10-17T12:23:50.931Z,2.50
2018-10-17T12:26:18.963Z,2.33
2018-10-17T12:28:47.076Z,2.63
2018-10-17T12:31:15.094Z,2.33
2018-10-17T12:33:43.258Z,2.23
2018-10-17T12:36:11.347Z,2.40
2018-10-17T12:38:39.458Z,2.30
2018-10-17T12:41:07.752Z,2.90
2018-10-17T12:43:35.698Z,2.37
2018-10-17T12:46:03.982Z,2.70
2018-10-17T12:48:32.103Z,2.30
2018-10-17T12:51:00.168Z,2.43
2018-10-17T12:53:28.306Z,2.40
2018-10-17T12:55:56.390Z,2.03
2018-10-17T12:58:24.498Z,2.20
2018-10-17T13:00:52.807Z,2.10
2018-10-17T13:03:20.926Z,1.97
2018-10-17T13:05:49.066Z,2.00
2018-10-17T13:08:17.154Z,2.03
2018-10-17T13:10:45.255Z,2.60
2018-10-17T13:13:13.390Z,2.13
2018-10-17T13:15:41.522Z,2.10
2018-10-17T13:18:09.619Z,1.83
2018-10-17T13:20:37.746Z,2.37
2018-10-17T13:23:06.178Z,2.17
2018-10-17T13:25:34.326Z,2.00
2018-10-17T13:28:02.394Z,2.20
2018-10-17T13:30:30.514Z,1.90
2018-10-17T13:32:58.702Z,2.30
2018-10-17T13:35:26.803Z,2.10
2018-10-17T13:37:54.873Z,2.10
2018-10-17T13:40:22.974Z,2.00
2018-10-17T13:42:51.012Z,2.30
2018-10-17T13:45:19.066Z,2.20
2018-10-17T13:47:47.195Z,2.20
2018-10-17T13:50:15.485Z,1.97
2018-10-17T13:52:43.542Z,2.80
2018-10-17T13:55:11.715Z,2.00
2018-10-17T13:57:39.805Z,1.87
2018-10-17T14:00:10.630Z,2.20
2018-10-17T14:02:38.737Z,1.97
2018-10-17T14:05:07.083Z,2.00
2018-10-17T14:07:35.175Z,2.13
2018-10-17T14:10:03.839Z,2.37
2018-10-17T14:12:31.959Z,2.20
2018-10-17T14:15:00.073Z,2.20
2018-10-17T14:17:28.122Z,2.43
2018-10-17T14:19:56.197Z,2.60
2018-10-17T14:22:24.241Z,2.73
2018-10-17T14:24:52.315Z,2.10
2018-10-17T14:27:20.396Z,2.93
2018-10-17T14:29:48.503Z,2.20
2018-10-17T14:32:16.574Z,2.27
2018-10-17T14:34:44.642Z,2.40
2018-10-17T14:37:12.771Z,2.50
2018-10-17T14:39:40.887Z,2.17
2018-10-17T14:42:09.124Z,2.40
2018-10-17T14:44:37.269Z,2.33
2018-10-17T14:47:05.510Z,5.17
2018-10-17T14:49:33.616Z,1.90
2018-10-17T14:52:01.834Z,1.97
2018-10-17T14:54:29.903Z,1.90
2018-10-17T14:56:58.065Z,2.00
2018-10-17T14:59:26.115Z,2.00
2018-10-17T15:01:54.773Z,1.87
2018-10-17T15:04:22.843Z,1.73
2018-10-17T15:06:50.953Z,1.87
2018-10-17T15:09:19.124Z,1.90
2018-10-17T15:11:47.339Z,2.13
2018-10-17T15:14:15.343Z,2.13
2018-10-17T15:16:43.491Z,1.93
2018-10-17T15:19:11.569Z,1.70
2018-10-17T15:21:39.691Z,1.80
2018-10-17T15:24:07.875Z,2.20
2018-10-17T15:26:36.007Z,2.03
2018-10-17T15:29:04.186Z,2.30
2018-10-17T15:31:32.311Z,1.60
2018-10-17T15:34:00.427Z,1.60
2018-10-17T15:36:28.510Z,1.80
2018-10-17T15:38:56.599Z,1.80
2018-10-17T15:41:24.676Z,1.60
2018-10-17T15:43:52.864Z,1.80
2018-10-17T15:46:20.964Z,1.87
2018-10-17T15:48:49.076Z,1.77
2018-10-17T15:51:17.236Z,1.60
2018-10-17T15:53:45.561Z,1.60
2018-10-17T15:56:13.447Z,2.10
2018-10-17T15:58:41.875Z,1.87
2018-10-17T16:01:10.036Z,1.80
2018-10-17T16:03:38.095Z,1.80
2018-10-17T16:06:06.298Z,1.60
2018-10-17T16:08:34.340Z,1.93
2018-10-17T16:11:02.427Z,1.53
2018-10-17T16:13:30.612Z,1.70
2018-10-17T16:15:58.710Z,1.50
2018-10-17T16:18:26.882Z,1.53
2018-10-17T16:20:54.966Z,1.20
2018-10-17T16:23:23.193Z,1.30
2018-10-17T16:25:51.228Z,1.50
2018-10-17T16:28:19.447Z,1.60
2018-10-17T16:30:47.662Z,1.37
2018-10-17T16:33:15.694Z,1.50
2018-10-17T16:35:43.795Z,1.60
2018-10-17T16:38:12.029Z,1.60
2018-10-17T16:40:40.154Z,1.30
2018-10-17T16:43:08.275Z,1.30
2018-10-17T16:45:36.399Z,1.40
2018-10-17T16:48:04.827Z,1.43
2018-10-17T16:50:33.090Z,1.77
2018-10-17T16:53:01.052Z,1.40
2018-10-17T16:55:29.206Z,1.67
2018-10-17T16:57:57.345Z,1.70
2018-10-17T17:00:25.426Z,1.30
2018-10-17T17:02:53.719Z,1.43
2018-10-17T17:05:21.838Z,1.70
2018-10-17T17:07:49.943Z,1.30
2018-10-17T17:10:18.056Z,1.73
2018-10-17T17:12:46.179Z,1.53
2018-10-17T17:15:14.360Z,1.33
2018-10-17T17:17:42.341Z,1.60
2018-10-17T17:20:11.307Z,1.67
2018-10-17T17:22:40.098Z,1.40
2018-10-17T17:25:08.294Z,1.43
2018-10-17T17:27:36.386Z,1.47
2018-10-17T17:30:07.332Z,1.33
2018-10-17T17:32:35.365Z,1.33
2018-10-17T17:35:03.437Z,1.50
2018-10-17T17:37:31.518Z,1.53
2018-10-17T17:39:59.618Z,1.70
2018-10-17T17:42:27.722Z,1.27
2018-10-17T17:44:55.852Z,1.43
2018-10-17T17:47:23.970Z,1.67
2018-10-17T17:49:52.066Z,1.60
2018-10-17T17:52:20.186Z,1.37
2018-10-17T17:54:48.298Z,1.30
2018-10-17T17:59:51.448Z,1.43
2018-10-17T18:02:19.615Z,1.50
2018-10-17T18:04:49.490Z,1.33
2018-10-17T18:07:17.642Z,1.43
2018-10-17T18:09:45.755Z,1.63
2018-10-17T18:12:13.855Z,1.20
2018-10-17T18:14:41.975Z,1.30
2018-10-17T18:17:10.086Z,1.30
2018-10-17T18:19:38.562Z,1.17
2018-10-17T18:22:06.748Z,1.40
2018-10-17T18:24:34.842Z,1.20
2018-10-17T18:27:03.004Z,1.47
2018-10-17T18:29:31.120Z,1.47
2018-10-17T18:31:59.242Z,1.57
2018-10-17T18:34:27.351Z,1.47
2018-10-17T18:36:55.702Z,1.10
2018-10-17T18:39:23.906Z,1.27
2018-10-17T18:41:52.114Z,1.00
2018-10-17T18:44:20.166Z,1.80
2018-10-17T18:46:48.246Z,1.70
2018-10-17T18:49:16.358Z,1.90
2018-10-17T18:51:44.415Z,2.03
2018-10-17T18:54:12.754Z,2.67
2018-10-17T18:56:41.084Z,2.70
2018-10-17T18:59:09.185Z,2.27
2018-10-17T19:01:37.494Z,2.57
2018-10-17T19:04:06.002Z,2.50
2018-10-17T19:06:34.094Z,2.17
2018-10-17T19:09:02.196Z,2.57
2018-10-17T19:11:30.238Z,2.33
2018-10-17T19:13:58.372Z,2.33
2018-10-17T19:16:26.422Z,2.40
2018-10-17T19:18:54.962Z,2.30
2018-10-17T19:21:23.041Z,1.90
2018-10-17T19:23:51.063Z,2.30
2018-10-17T19:26:19.786Z,1.87
2018-10-17T19:28:48.270Z,1.80
2018-10-17T19:31:16.350Z,2.10
2018-10-17T19:33:44.499Z,1.90
2018-10-17T19:36:12.650Z,2.20
2018-10-17T19:38:40.844Z,1.70
2018-10-17T19:41:08.902Z,2.27
2018-10-17T19:43:36.982Z,1.90
2018-10-17T19:46:05.195Z,2.03
2018-10-17T19:48:33.254Z,2.00
2018-10-17T19:51:01.323Z,2.13
2018-10-17T19:53:29.394Z,2.10
2018-10-17T19:55:57.693Z,2.33
2018-10-17T19:58:25.718Z,2.20
2018-10-17T20:00:53.768Z,1.90
2018-10-17T20:03:21.971Z,1.73
2018-10-17T20:05:50.134Z,1.97
2018-10-17T20:08:18.277Z,1.97
2018-10-17T20:10:46.363Z,1.97
2018-10-17T20:13:14.467Z,2.07
2018-10-17T20:15:42.743Z,2.27
2018-10-17T20:18:10.807Z,1.90
2018-10-17T20:20:38.939Z,1.57
2018-10-17T20:23:07.022Z,2.27
2018-10-17T20:25:35.127Z,2.00
2018-10-17T20:28:03.231Z,1.83
2018-10-17T20:30:31.324Z,2.67
2018-10-17T20:32:59.445Z,2.20
2018-10-17T20:35:27.567Z,2.07
2018-10-17T20:37:55.719Z,2.07
2018-10-17T20:40:23.870Z,2.03
2018-10-17T20:42:52.001Z,1.97
2018-10-17T20:45:20.074Z,2.70
2018-10-17T20:47:48.198Z,1.93
2018-10-17T20:52:51.993Z,2.03
2018-10-17T20:55:20.495Z,1.97
2018-10-17T20:57:48.843Z,1.43
2018-10-17T21:00:17.026Z,2.00
2018-10-17T21:02:45.157Z,1.90
2018-10-17T21:05:13.235Z,1.87
2018-10-17T21:07:41.291Z,1.77
2018-10-17T21:10:09.374Z,1.57
2018-10-17T21:12:37.438Z,2.03
2018-10-17T21:15:06.513Z,1.50
2018-10-17T21:17:34.626Z,2.20
2018-10-17T21:20:02.810Z,1.97
2018-10-17T21:22:31.831Z,1.90
2018-10-17T21:24:59.914Z,2.00
2018-10-17T21:27:28.006Z,2.07
2018-10-17T21:29:56.110Z,2.00
2018-10-17T21:32:24.215Z,2.43
2018-10-17T21:34:52.398Z,1.97
2018-10-17T21:37:20.478Z,1.83
2018-10-17T21:39:48.654Z,1.97
2018-10-17T21:42:16.713Z,2.07
2018-10-17T21:44:44.790Z,2.00
2018-10-17T21:47:12.950Z,1.97
2018-10-17T21:49:40.986Z,2.07
2018-10-17T21:52:09.062Z,1.80
2018-10-17T21:54:37.142Z,1.80
2018-10-17T21:57:05.755Z,1.83
2018-10-17T21:59:33.879Z,1.33
2018-10-17T22:02:02.029Z,1.63
2018-10-17T22:04:30.238Z,1.90
2018-10-17T22:06:58.351Z,1.93
2018-10-17T22:09:26.431Z,2.00
2018-10-17T22:11:54.510Z,1.77
2018-10-17T22:14:22.632Z,1.87
2018-10-17T22:16:55.954Z,1.90
2018-10-17T22:19:24.313Z,1.83
2018-10-17T22:21:52.246Z,1.90
2018-10-17T22:24:20.310Z,1.67
2018-10-17T22:26:48.454Z,1.70
2018-10-17T22:29:16.520Z,1.67
2018-10-17T22:31:44.610Z,1.90
2018-10-17T22:34:12.707Z,1.80
2018-10-17T22:36:40.827Z,1.90
2018-10-17T22:39:11.088Z,1.50
2018-10-17T22:41:39.167Z,1.77
2018-10-17T22:44:07.351Z,1.57
2018-10-17T22:46:35.418Z,1.60
2018-10-17T22:49:03.810Z,1.97
2018-10-17T22:51:31.945Z,1.90
2018-10-17T22:54:00.078Z,1.80
2018-10-17T22:56:28.238Z,1.90
2018-10-17T22:58:56.298Z,1.90
2018-10-17T23:01:24.462Z,2.33
2018-10-17T23:03:52.635Z,1.70
2018-10-17T23:06:20.702Z,1.97
2018-10-17T23:08:48.773Z,1.90
2018-10-17T23:11:16.871Z,1.90
2018-10-17T23:13:44.946Z,1.63
2018-10-17T23:16:13.109Z,1.70
2018-10-17T23:18:41.205Z,2.00
2018-10-17T23:21:09.587Z,1.90
2018-10-17T23:23:37.655Z,1.77
2018-10-17T23:26:06.529Z,1.80
2018-10-17T23:28:34.598Z,1.60
2018-10-17T23:31:02.661Z,1.90
2018-10-17T23:33:30.755Z,1.77
2018-10-17T23:35:58.845Z,1.70
2018-10-17T23:38:26.942Z,1.47
2018-10-17T23:40:55.047Z,1.80
2018-10-17T23:43:23.094Z,1.80
2018-10-17T23:45:51.138Z,1.80
2018-10-17T23:48:19.282Z,1.97
2018-10-17T23:50:47.586Z,1.67
2018-10-17T23:53:15.655Z,1.90
2018-10-17T23:55:43.731Z,1.90
2018-10-17T23:58:11.798Z,1.83
